createdAt,value
2022-07-29T00:01:50.623Z,17.41
2022-07-29T00:04:17.781Z,17.34
2022-07-29T00:06:44.609Z,17.31
2022-07-29T00:09:11.266Z,17.33
2022-07-29T00:11:38.328Z,17.34
2022-07-29T00:14:05.130Z,17.34
2022-07-29T00:16:31.844Z,17.38
2022-07-29T00:19:01.879Z,17.38
2022-07-29T00:21:28.935Z,17.42
2022-07-29T00:23:55.682Z,17.45
2022-07-29T00:26:22.238Z,17.47
2022-07-29T00:28:48.793Z,17.47
2022-07-29T00:31:15.532Z,17.46
2022-07-29T00:33:42.156Z,17.44
2022-07-29T00:36:08.719Z,17.39
2022-07-29T00:38:35.354Z,17.34
2022-07-29T00:41:02.251Z,17.31
2022-07-29T00:43:28.863Z,17.27
2022-07-29T00:45:55.600Z,17.26
2022-07-29T00:48:22.219Z,17.22
2022-07-29T00:50:50.604Z,17.19
2022-07-29T00:53:17.639Z,17.17
2022-07-29T00:55:44.291Z,17.12
2022-07-29T00:58:13.148Z,17.08
2022-07-29T01:00:41.749Z,17.03
2022-07-29T01:03:09.082Z,17.01
2022-07-29T01:05:50.638Z,16.98
2022-07-29T01:08:18.703Z,16.95
2022-07-29T01:10:47.046Z,16.89
2022-07-29T01:13:15.700Z,16.87
2022-07-29T01:15:50.617Z,16.86
2022-07-29T01:18:22.948Z,16.86
2022-07-29T01:21:06.281Z,16.85
2022-07-29T01:23:54.519Z,16.84
2022-07-29T01:26:30.090Z,16.82
2022-07-29T01:29:36.067Z,16.81
2022-07-29T01:32:22.544Z,16.76
2022-07-29T01:35:19.711Z,16.71
2022-07-29T01:38:13.625Z,16.70
2022-07-29T01:40:48.803Z,16.69
2022-07-29T01:43:22.185Z,16.68
2022-07-29T01:45:58.724Z,16.64
2022-07-29T01:48:32.662Z,16.63
2022-07-29T01:51:14.670Z,16.62
2022-07-29T01:54:03.321Z,16.58
2022-07-29T01:56:34.622Z,16.61
2022-07-29T01:59:04.010Z,16.61
2022-07-29T02:01:33.628Z,16.59
2022-07-29T02:04:04.219Z,16.53
2022-07-29T02:06:34.389Z,16.53
2022-07-29T02:09:03.348Z,16.52
2022-07-29T02:11:33.958Z,16.51
2022-07-29T02:14:02.546Z,16.47
2022-07-29T02:16:32.061Z,16.45
2022-07-29T02:19:01.761Z,16.43
2022-07-29T02:21:30.676Z,16.42
2022-07-29T02:24:00.499Z,16.42
2022-07-29T02:26:28.763Z,16.38
2022-07-29T02:28:57.342Z,16.37
2022-07-29T02:31:27.463Z,16.35
2022-07-29T02:33:55.811Z,16.35
2022-07-29T02:36:24.753Z,16.36
2022-07-29T02:38:52.531Z,16.34
2022-07-29T02:41:27.330Z,16.36
2022-07-29T02:44:07.400Z,16.37
2022-07-29T02:46:36.916Z,16.35
2022-07-29T02:49:26.595Z,16.35
2022-07-29T02:52:01.419Z,16.35
2022-07-29T02:54:42.176Z,16.33
2022-07-29T02:57:28.639Z,16.35
2022-07-29T02:59:59.862Z,16.35
2022-07-29T03:02:28.336Z,16.35
2022-07-29T03:04:58.167Z,16.36
2022-07-29T03:07:25.575Z,16.38
2022-07-29T03:09:53.438Z,16.39
2022-07-29T03:12:20.771Z,16.41
2022-07-29T03:14:48.369Z,16.41
2022-07-29T03:17:15.666Z,16.43
2022-07-29T03:19:43.288Z,16.45
2022-07-29T03:22:10.754Z,16.44
2022-07-29T03:24:37.809Z,16.47
2022-07-29T03:27:06.448Z,16.48
2022-07-29T03:29:34.683Z,16.47
2022-07-29T03:32:07.298Z,16.48
2022-07-29T03:34:35.892Z,16.48
2022-07-29T03:37:02.465Z,16.54
2022-07-29T03:39:34.218Z,16.58
2022-07-29T03:42:02.057Z,16.60
2022-07-29T03:44:30.213Z,16.64
2022-07-29T03:47:01.026Z,16.68
2022-07-29T03:49:28.444Z,16.70
2022-07-29T03:51:55.743Z,16.72
2022-07-29T03:54:23.147Z,16.77
2022-07-29T03:56:53.039Z,16.84
2022-07-29T03:59:22.520Z,16.96
2022-07-29T04:01:50.068Z,17.04
2022-07-29T04:04:17.689Z,17.13
2022-07-29T04:06:48.364Z,17.23
2022-07-29T04:09:15.262Z,17.31
2022-07-29T04:12:02.639Z,17.45
2022-07-29T04:14:30.539Z,17.56
2022-07-29T04:16:57.314Z,17.70
2022-07-29T04:19:23.869Z,17.85
2022-07-29T04:21:50.551Z,17.99
2022-07-29T04:24:17.829Z,18.08
2022-07-29T04:26:47.151Z,18.21
2022-07-29T04:29:15.227Z,18.29
2022-07-29T04:31:42.776Z,18.36
2022-07-29T04:34:10.096Z,18.48
2022-07-29T04:36:36.681Z,18.60
2022-07-29T04:39:03.770Z,18.68
2022-07-29T04:41:33.036Z,18.76
2022-07-29T04:44:06.850Z,18.84
2022-07-29T04:46:34.634Z,18.90
2022-07-29T04:49:01.507Z,18.99
2022-07-29T04:51:28.333Z,19.06
2022-07-29T04:53:54.905Z,19.10
2022-07-29T04:56:21.479Z,19.22
2022-07-29T04:58:48.519Z,19.28
2022-07-29T05:01:15.542Z,19.38
2022-07-29T05:03:42.221Z,19.44
2022-07-29T05:06:08.817Z,19.51
2022-07-29T05:08:35.386Z,19.59
2022-07-29T05:11:11.567Z,19.67
2022-07-29T05:13:45.939Z,19.72
2022-07-29T05:16:14.223Z,19.83
2022-07-29T05:18:41.071Z,19.90
2022-07-29T05:21:07.656Z,19.96
2022-07-29T05:23:34.286Z,20.03
2022-07-29T05:26:01.188Z,20.08
2022-07-29T05:28:27.732Z,20.16
2022-07-29T05:30:54.369Z,20.22
2022-07-29T05:33:35.865Z,20.29
2022-07-29T05:36:06.557Z,20.38
2022-07-29T05:38:33.888Z,20.46
2022-07-29T05:41:00.769Z,20.54
2022-07-29T05:43:30.904Z,20.61
2022-07-29T05:45:58.026Z,20.65
2022-07-29T05:48:25.223Z,20.74
2022-07-29T05:50:51.826Z,20.78
2022-07-29T05:53:18.997Z,20.89
2022-07-29T05:55:47.646Z,20.96
2022-07-29T05:58:14.251Z,21.02
2022-07-29T06:00:41.061Z,21.10
2022-07-29T06:03:07.663Z,21.18
2022-07-29T06:05:34.248Z,21.26
2022-07-29T06:08:00.885Z,21.35
2022-07-29T06:10:27.878Z,21.42
2022-07-29T06:12:54.686Z,21.51
2022-07-29T06:15:21.461Z,21.60
2022-07-29T06:18:00.372Z,21.68
2022-07-29T06:20:32.443Z,21.74
2022-07-29T06:23:00.250Z,21.85
2022-07-29T06:25:30.231Z,21.92
2022-07-29T06:27:57.718Z,22.00
2022-07-29T06:30:24.583Z,22.09
2022-07-29T06:32:51.234Z,22.15
2022-07-29T06:35:40.927Z,22.22
2022-07-29T06:38:12.029Z,22.28
2022-07-29T06:41:03.862Z,22.38
2022-07-29T06:43:35.031Z,22.43
2022-07-29T06:46:04.295Z,22.50
2022-07-29T06:48:31.441Z,22.55
2022-07-29T06:50:58.323Z,22.62
2022-07-29T06:53:24.919Z,22.70
2022-07-29T06:55:51.564Z,22.77
2022-07-29T06:58:21.193Z,22.85
2022-07-29T07:00:48.900Z,22.92
2022-07-29T07:03:16.916Z,23.02
2022-07-29T07:05:43.651Z,23.08
2022-07-29T07:08:10.668Z,23.17
2022-07-29T07:10:37.856Z,23.21
2022-07-29T07:13:05.648Z,23.31
2022-07-29T07:15:39.180Z,23.43
2022-07-29T07:18:07.701Z,23.47
2022-07-29T07:20:35.384Z,23.55
2022-07-29T07:23:02.000Z,23.62
2022-07-29T07:25:29.071Z,23.65
2022-07-29T07:27:55.747Z,23.76
2022-07-29T07:30:22.320Z,23.87
2022-07-29T07:32:49.359Z,23.96
2022-07-29T07:35:16.050Z,24.10
2022-07-29T07:37:42.836Z,24.14
2022-07-29T07:40:12.608Z,24.24
2022-07-29T07:42:45.330Z,24.29
2022-07-29T07:45:15.807Z,24.33
2022-07-29T07:47:43.249Z,24.31
2022-07-29T07:50:18.042Z,24.31
2022-07-29T07:52:58.475Z,24.35
2022-07-29T07:55:26.113Z,24.37
2022-07-29T07:57:53.332Z,24.40
2022-07-29T08:00:22.991Z,24.48
2022-07-29T08:02:51.143Z,24.54
2022-07-29T08:05:18.450Z,24.60
2022-07-29T08:07:47.392Z,24.71
2022-07-29T08:10:16.027Z,24.82
2022-07-29T08:12:44.448Z,24.90
2022-07-29T08:15:11.086Z,25.02
2022-07-29T08:17:37.738Z,25.15
2022-07-29T08:20:05.186Z,25.21
2022-07-29T08:22:31.832Z,25.27
2022-07-29T08:24:58.500Z,25.33
2022-07-29T08:27:43.502Z,25.45
2022-07-29T08:30:11.543Z,25.52
2022-07-29T08:32:53.049Z,25.54
2022-07-29T08:35:21.739Z,25.58
2022-07-29T08:37:48.444Z,25.56
2022-07-29T08:40:15.401Z,25.56
2022-07-29T08:42:42.264Z,25.56
2022-07-29T08:45:09.793Z,25.56
2022-07-29T08:47:40.735Z,25.59
2022-07-29T08:50:10.489Z,25.63
2022-07-29T08:52:39.258Z,25.75
2022-07-29T08:55:08.456Z,25.80
2022-07-29T08:57:37.242Z,25.83
2022-07-29T09:00:07.991Z,25.87
2022-07-29T09:02:42.698Z,25.96
2022-07-29T09:05:09.733Z,26.04
2022-07-29T09:07:36.546Z,26.11
2022-07-29T09:10:05.415Z,26.14
2022-07-29T09:12:37.586Z,26.14
2022-07-29T09:15:04.947Z,26.11
2022-07-29T09:17:41.084Z,26.12
2022-07-29T09:20:13.363Z,26.19
2022-07-29T09:22:42.022Z,26.22
2022-07-29T09:25:09.499Z,26.29
2022-07-29T09:27:36.616Z,26.33
2022-07-29T09:30:06.178Z,26.43
2022-07-29T09:32:34.161Z,26.43
2022-07-29T09:35:24.368Z,26.47
2022-07-29T09:37:51.175Z,26.53
2022-07-29T09:40:25.740Z,26.62
2022-07-29T09:42:56.548Z,26.73
2022-07-29T09:45:34.133Z,26.87
2022-07-29T09:48:14.020Z,26.94
2022-07-29T09:50:41.581Z,27.04
2022-07-29T09:53:10.364Z,27.13
2022-07-29T09:56:03.759Z,27.23
2022-07-29T09:58:30.582Z,27.22
2022-07-29T10:00:58.065Z,27.22
2022-07-29T10:03:25.377Z,27.22
2022-07-29T10:06:11.843Z,27.22
2022-07-29T10:08:39.182Z,27.27
2022-07-29T10:11:14.867Z,27.31
2022-07-29T10:13:42.593Z,27.32
2022-07-29T10:16:10.028Z,27.35
2022-07-29T10:18:39.783Z,27.34
2022-07-29T10:21:08.104Z,27.29
2022-07-29T10:23:46.369Z,27.28
2022-07-29T10:26:15.543Z,27.26
2022-07-29T10:28:42.264Z,27.22
2022-07-29T10:31:20.384Z,27.21
2022-07-29T10:34:20.414Z,27.19
2022-07-29T10:37:08.286Z,27.20
2022-07-29T10:39:41.635Z,27.25
2022-07-29T10:42:34.556Z,27.34
2022-07-29T10:45:02.794Z,27.39
2022-07-29T10:47:31.805Z,27.45
2022-07-29T10:50:01.410Z,27.52
2022-07-29T10:52:57.989Z,27.60
2022-07-29T10:55:36.259Z,27.72
2022-07-29T10:58:29.178Z,27.80
2022-07-29T11:00:56.335Z,27.89
2022-07-29T11:03:50.379Z,27.97
2022-07-29T11:06:18.195Z,28.00
2022-07-29T11:09:34.883Z,28.08
2022-07-29T11:12:04.795Z,28.14
2022-07-29T11:15:01.571Z,28.24
2022-07-29T11:17:47.110Z,28.36
2022-07-29T11:20:37.980Z,28.52
2022-07-29T11:23:33.416Z,28.56
2022-07-29T11:26:23.048Z,28.62
2022-07-29T11:28:49.952Z,28.65
2022-07-29T11:31:20.898Z,28.68
2022-07-29T11:33:56.251Z,28.72
2022-07-29T11:36:28.369Z,28.79
2022-07-29T11:42:32.358Z,28.98
2022-07-29T11:45:08.924Z,29.10
2022-07-29T11:48:05.349Z,29.22
2022-07-29T11:50:45.806Z,29.45
2022-07-29T11:53:15.411Z,29.54
2022-07-29T11:55:51.583Z,29.60
2022-07-29T11:58:25.062Z,29.68
2022-07-29T12:00:52.553Z,29.75
2022-07-29T12:03:35.567Z,29.83
2022-07-29T12:06:14.021Z,29.93
2022-07-29T12:07:01.815Z,28.88
2022-07-29T12:08:44.011Z,30.02
2022-07-29T12:11:22.823Z,30.03
2022-07-29T12:13:52.252Z,29.90
2022-07-29T12:16:25.358Z,29.80
2022-07-29T12:19:03.908Z,29.78
2022-07-29T12:21:52.235Z,29.79
2022-07-29T12:24:27.032Z,29.76
2022-07-29T12:27:00.789Z,29.74
2022-07-29T12:29:35.567Z,29.79
2022-07-29T12:32:14.387Z,29.76
2022-07-29T12:34:46.051Z,29.73
2022-07-29T12:37:12.787Z,29.73
2022-07-29T12:39:40.227Z,29.78
2022-07-29T12:42:18.752Z,29.84
2022-07-29T12:44:50.349Z,29.96
2022-07-29T12:47:19.025Z,30.08
2022-07-29T12:49:46.299Z,30.23
2022-07-29T12:52:26.183Z,30.32
2022-07-29T12:54:52.916Z,30.26
2022-07-29T12:57:20.180Z,30.28
2022-07-29T13:00:00.374Z,30.33
2022-07-29T13:02:27.061Z,30.35
2022-07-29T13:04:58.782Z,30.37
2022-07-29T13:07:54.481Z,30.38
2022-07-29T13:10:16.514Z,30.40
2022-07-29T13:13:13.967Z,30.47
2022-07-29T13:15:41.957Z,30.49
2022-07-29T13:18:37.229Z,30.53
2022-07-29T13:21:18.742Z,30.58
2022-07-29T13:23:45.622Z,30.74
2022-07-29T13:26:12.761Z,30.88
2022-07-29T13:28:39.394Z,31.05
2022-07-29T13:31:06.454Z,31.19
2022-07-29T13:33:33.033Z,31.24
2022-07-29T13:35:59.603Z,31.28
2022-07-29T13:38:31.155Z,31.30
2022-07-29T13:40:58.274Z,31.28
2022-07-29T13:43:25.096Z,31.28
2022-07-29T13:45:54.766Z,31.20
2022-07-29T13:48:21.674Z,31.12
2022-07-29T13:50:49.011Z,31.04
2022-07-29T13:53:17.712Z,30.87
2022-07-29T13:55:46.068Z,30.77
2022-07-29T13:58:12.736Z,30.80
2022-07-29T14:00:39.446Z,31.02
2022-07-29T14:03:07.363Z,31.38
2022-07-29T14:05:34.037Z,31.84
2022-07-29T14:08:00.652Z,32.41
2022-07-29T14:10:30.271Z,33.14
2022-07-29T14:12:56.834Z,33.72
2022-07-29T14:15:24.363Z,34.23
2022-07-29T14:17:50.928Z,34.83
2022-07-29T14:20:17.620Z,35.37
2022-07-29T14:22:45.115Z,35.89
2022-07-29T14:25:14.442Z,36.16
2022-07-29T14:27:41.408Z,36.61
2022-07-29T14:30:09.370Z,37.06
2022-07-29T14:32:35.991Z,37.48
2022-07-29T14:35:02.556Z,38.02
2022-07-29T14:37:40.257Z,38.40
2022-07-29T14:40:08.509Z,38.60
2022-07-29T14:42:35.197Z,38.93
2022-07-29T14:45:01.797Z,39.10
2022-07-29T14:47:28.432Z,39.02
2022-07-29T14:49:55.010Z,38.65
2022-07-29T14:52:21.762Z,38.07
2022-07-29T14:54:48.334Z,37.39
2022-07-29T14:57:14.944Z,36.50
2022-07-29T14:59:41.528Z,35.85
2022-07-29T15:02:08.340Z,35.33
2022-07-29T15:04:35.516Z,35.13
2022-07-29T15:07:02.809Z,35.27
2022-07-29T15:09:29.378Z,35.46
2022-07-29T15:11:56.871Z,35.43
2022-07-29T15:14:23.727Z,35.20
2022-07-29T15:16:50.453Z,34.94
2022-07-29T15:19:19.658Z,34.53
2022-07-29T15:21:48.477Z,34.15
2022-07-29T15:24:19.620Z,33.76
2022-07-29T15:26:47.087Z,33.36
2022-07-29T15:29:14.472Z,33.03
2022-07-29T15:31:44.582Z,32.72
2022-07-29T15:34:11.464Z,32.45
2022-07-29T15:36:53.989Z,32.23
2022-07-29T15:39:22.330Z,32.05
2022-07-29T15:41:49.015Z,31.93
2022-07-29T15:44:15.647Z,31.80
2022-07-29T15:47:01.569Z,32.02
2022-07-29T15:49:48.786Z,32.55
2022-07-29T15:52:19.044Z,33.12
2022-07-29T15:54:51.663Z,33.57
2022-07-29T15:57:18.239Z,33.88
2022-07-29T15:59:44.842Z,34.27
2022-07-29T16:02:11.406Z,34.48
2022-07-29T16:04:38.356Z,34.58
2022-07-29T16:07:04.998Z,34.58
2022-07-29T16:09:31.708Z,34.46
2022-07-29T16:11:58.362Z,34.23
2022-07-29T16:14:28.150Z,33.91
2022-07-29T16:16:55.473Z,33.50
2022-07-29T16:19:22.541Z,33.15
2022-07-29T16:21:49.265Z,32.80
2022-07-29T16:24:15.955Z,32.51
2022-07-29T16:26:42.518Z,32.22
2022-07-29T16:29:09.064Z,31.84
2022-07-29T16:31:35.680Z,31.54
2022-07-29T16:34:02.708Z,31.21
2022-07-29T16:36:29.305Z,30.91
2022-07-29T16:38:55.893Z,30.61
2022-07-29T16:41:22.515Z,30.32
2022-07-29T16:43:49.245Z,30.06
2022-07-29T16:46:19.255Z,29.79
2022-07-29T16:48:46.678Z,29.51
2022-07-29T16:51:14.487Z,29.24
2022-07-29T16:53:41.756Z,29.00
2022-07-29T16:56:11.820Z,28.79
2022-07-29T16:58:43.457Z,28.60
2022-07-29T17:01:11.493Z,28.41
2022-07-29T17:04:00.088Z,28.24
2022-07-29T17:06:26.951Z,28.06
2022-07-29T17:08:53.562Z,27.88
2022-07-29T17:11:20.153Z,27.72
2022-07-29T17:13:46.726Z,27.57
2022-07-29T17:16:13.388Z,27.44
2022-07-29T17:18:40.086Z,27.31
2022-07-29T17:21:06.664Z,27.16
2022-07-29T17:23:33.237Z,27.02
2022-07-29T17:25:59.895Z,26.88
2022-07-29T17:28:26.445Z,26.76
2022-07-29T17:30:53.386Z,26.67
2022-07-29T17:33:19.982Z,26.56
2022-07-29T17:36:05.174Z,26.41
2022-07-29T17:38:31.823Z,26.26
2022-07-29T17:40:58.501Z,26.09
2022-07-29T17:43:25.083Z,25.95
2022-07-29T17:45:51.934Z,25.82
2022-07-29T17:48:19.783Z,25.68
2022-07-29T17:50:47.975Z,25.49
2022-07-29T17:53:16.398Z,25.33
2022-07-29T17:55:48.665Z,25.25
2022-07-29T17:58:15.851Z,25.16
2022-07-29T18:00:42.912Z,25.13
2022-07-29T18:03:09.602Z,25.08
2022-07-29T18:05:36.317Z,25.05
2022-07-29T18:08:02.881Z,25.00
2022-07-29T18:10:30.237Z,24.99
2022-07-29T18:12:56.876Z,24.97
2022-07-29T18:15:23.511Z,24.96
2022-07-29T18:17:57.235Z,24.92
2022-07-29T18:20:25.802Z,24.90
2022-07-29T18:22:52.542Z,24.88
2022-07-29T18:25:19.130Z,24.86
2022-07-29T18:27:45.790Z,24.83
2022-07-29T18:30:12.444Z,24.79
2022-07-29T18:32:39.064Z,24.76
2022-07-29T18:35:06.404Z,24.76
2022-07-29T18:38:01.948Z,24.75
2022-07-29T18:40:23.828Z,24.70
2022-07-29T18:42:50.442Z,24.65
2022-07-29T18:45:19.380Z,24.61
2022-07-29T18:47:47.426Z,24.61
2022-07-29T18:50:14.654Z,24.58
2022-07-29T18:52:41.502Z,24.57
2022-07-29T18:55:08.823Z,24.56
2022-07-29T18:57:54.139Z,24.55
2022-07-29T19:00:22.742Z,24.52
2022-07-29T19:02:49.937Z,24.49
2022-07-29T19:05:16.624Z,24.45
2022-07-29T19:07:43.224Z,24.41
2022-07-29T19:10:10.091Z,24.40
2022-07-29T19:12:36.910Z,24.37
2022-07-29T19:15:03.998Z,24.33
2022-07-29T19:17:30.699Z,24.30
2022-07-29T19:19:57.382Z,24.28
2022-07-29T19:22:24.282Z,24.24
2022-07-29T19:24:50.935Z,24.24
2022-07-29T19:27:17.717Z,24.20
2022-07-29T19:29:44.365Z,24.19
2022-07-29T19:32:11.180Z,24.14
2022-07-29T19:34:38.338Z,24.11
2022-07-29T19:37:05.238Z,24.10
2022-07-29T19:39:35.550Z,24.08
2022-07-29T19:42:03.541Z,24.05
2022-07-29T19:44:30.326Z,24.05
2022-07-29T19:46:57.273Z,24.02
2022-07-29T19:49:24.129Z,23.99
2022-07-29T19:51:50.896Z,23.97
2022-07-29T19:54:20.722Z,23.95
2022-07-29T19:56:47.274Z,23.92
2022-07-29T19:59:13.853Z,23.90
2022-07-29T20:01:40.509Z,23.90
2022-07-29T20:04:07.089Z,23.86
2022-07-29T20:06:33.969Z,23.84
2022-07-29T20:09:00.571Z,23.83
2022-07-29T20:11:27.404Z,23.81
2022-07-29T20:13:54.014Z,23.79
2022-07-29T20:16:22.225Z,23.77
2022-07-29T20:18:48.865Z,23.73
2022-07-29T20:21:15.561Z,23.70
2022-07-29T20:23:42.125Z,23.67
2022-07-29T20:26:09.792Z,23.65
2022-07-29T20:28:37.251Z,23.65
2022-07-29T20:31:04.017Z,23.64
2022-07-29T20:33:30.827Z,23.63
2022-07-29T20:35:57.405Z,23.61
2022-07-29T20:38:24.019Z,23.59
2022-07-29T20:40:50.915Z,23.58
2022-07-29T20:43:17.651Z,23.55
2022-07-29T20:45:44.325Z,23.52
2022-07-29T20:48:10.943Z,23.50
2022-07-29T20:50:37.591Z,23.49
2022-07-29T20:53:04.231Z,23.45
2022-07-29T20:55:32.043Z,23.44
2022-07-29T20:57:58.969Z,23.41
2022-07-29T21:00:25.679Z,23.40
2022-07-29T21:02:52.333Z,23.36
2022-07-29T21:05:19.091Z,23.35
2022-07-29T21:07:45.663Z,23.34
2022-07-29T21:10:14.109Z,23.34
2022-07-29T21:12:41.950Z,23.33
2022-07-29T21:15:08.906Z,23.33
2022-07-29T21:17:36.164Z,23.32
2022-07-29T21:20:08.586Z,23.30
2022-07-29T21:22:35.177Z,23.29
2022-07-29T21:25:01.839Z,23.27
2022-07-29T21:27:47.145Z,23.26
2022-07-29T21:30:13.824Z,23.21
2022-07-29T21:32:40.453Z,23.19
2022-07-29T21:35:15.164Z,23.17
2022-07-29T21:37:54.053Z,23.17
2022-07-29T21:40:20.688Z,23.17
2022-07-29T21:42:47.253Z,23.17
2022-07-29T21:45:13.824Z,23.16
2022-07-29T21:47:40.483Z,23.15
2022-07-29T21:50:07.539Z,23.13
2022-07-29T21:52:34.163Z,23.12
2022-07-29T21:55:04.093Z,23.10
2022-07-29T21:57:30.746Z,23.07
2022-07-29T22:00:02.195Z,23.07
2022-07-29T22:02:29.399Z,23.04
2022-07-29T22:04:55.969Z,23.03
2022-07-29T22:07:23.802Z,23.02
2022-07-29T22:09:50.389Z,23.00
2022-07-29T22:12:17.017Z,22.99
2022-07-29T22:14:43.576Z,22.99
2022-07-29T22:17:10.179Z,22.97
2022-07-29T22:19:36.849Z,22.97
2022-07-29T22:22:03.443Z,22.97
2022-07-29T22:24:30.015Z,22.96
2022-07-29T22:26:56.836Z,22.94
2022-07-29T22:29:23.555Z,22.91
2022-07-29T22:31:50.111Z,22.88
2022-07-29T22:34:16.735Z,22.87
2022-07-29T22:36:43.439Z,22.82
2022-07-29T22:39:09.996Z,22.79
2022-07-29T22:41:36.843Z,22.76
2022-07-29T22:44:03.681Z,22.72
2022-07-29T22:46:30.351Z,22.69
2022-07-29T22:48:58.129Z,22.63
2022-07-29T22:51:24.764Z,22.62
2022-07-29T22:53:51.531Z,22.58
2022-07-29T22:56:20.096Z,22.53
2022-07-29T22:58:46.766Z,22.50
2022-07-29T23:01:13.843Z,22.45
2022-07-29T23:03:40.547Z,22.38
2022-07-29T23:06:17.610Z,22.31
2022-07-29T23:08:44.283Z,22.24
2022-07-29T23:11:10.855Z,22.19
2022-07-29T23:13:37.550Z,22.14
2022-07-29T23:16:04.423Z,22.09
2022-07-29T23:18:31.057Z,22.05
2022-07-29T23:20:57.610Z,22.01
2022-07-29T23:23:24.311Z,21.95
2022-07-29T23:25:50.920Z,21.89
2022-07-29T23:28:18.722Z,21.82
2022-07-29T23:30:45.446Z,21.73
2022-07-29T23:33:12.066Z,21.70
2022-07-29T23:35:38.619Z,21.63
2022-07-29T23:38:05.359Z,21.56
2022-07-29T23:40:32.395Z,21.47
2022-07-29T23:42:59.029Z,21.43
2022-07-29T23:45:39.993Z,21.38
2022-07-29T23:48:11.529Z,21.33
2022-07-29T23:50:38.146Z,21.23
2022-07-29T23:53:04.721Z,21.22
2022-07-29T23:55:37.431Z,21.18
2022-07-29T23:58:05.653Z,21.15
